createdAt,value
2017-12-19T00:00:09.402Z,59.4
2017-12-19T00:01:11.057Z,64.3
2017-12-19T00:02:12.714Z,64.0
2017-12-19T00:03:14.384Z,65.0
2017-12-19T00:04:16.035Z,63.9
2017-12-19T00:05:17.679Z,70.7
2017-12-19T00:06:19.375Z,65.7
2017-12-19T00:07:21.018Z,69.0
2017-12-19T00:08:22.663Z,71.3
2017-12-19T00:09:24.314Z,67.8
2017-12-19T00:10:25.981Z,70.1
2017-12-19T00:11:27.643Z,65.6
2017-12-19T00:12:29.289Z,67.2
2017-12-19T00:13:30.940Z,65.1
2017-12-19T00:14:32.595Z,65.2
2017-12-19T00:15:34.243Z,62.8
2017-12-19T00:16:35.891Z,67.8
2017-12-19T00:17:37.546Z,67.6
2017-12-19T00:18:39.182Z,62.3
2017-12-19T00:19:40.836Z,62.5
2017-12-19T00:20:42.478Z,63.6
2017-12-19T00:21:44.131Z,66.1
2017-12-19T00:22:45.769Z,65.2
2017-12-19T00:23:47.413Z,63.6
2017-12-19T00:24:49.059Z,68.4
2017-12-19T00:25:50.703Z,66.4
2017-12-19T00:26:52.350Z,68.2
2017-12-19T00:27:54.012Z,66.1
2017-12-19T00:28:55.665Z,68.0
2017-12-19T00:29:57.308Z,66.7
2017-12-19T00:30:58.959Z,68.0
2017-12-19T00:32:00.617Z,64.1
2017-12-19T00:33:02.269Z,66.3
2017-12-19T00:34:03.924Z,64.2
2017-12-19T00:35:05.567Z,60.8
2017-12-19T00:36:07.218Z,58.8
2017-12-19T00:37:08.876Z,77.2
2017-12-19T00:38:10.528Z,74.9
2017-12-19T00:39:12.178Z,76.1
2017-12-19T00:40:13.813Z,68.6
2017-12-19T00:41:15.469Z,60.6
2017-12-19T00:42:17.115Z,59.4
2017-12-19T00:43:18.767Z,53.4
2017-12-19T00:44:20.414Z,59.8
2017-12-19T00:45:22.064Z,60.1
2017-12-19T00:46:23.711Z,61.4
2017-12-19T00:47:25.420Z,62.6
2017-12-19T00:48:27.069Z,56.5
2017-12-19T00:49:28.716Z,63.9
2017-12-19T00:50:30.360Z,71.5
2017-12-19T00:51:32.014Z,70.1
2017-12-19T00:52:33.667Z,73.5
2017-12-19T00:53:35.326Z,73.3
2017-12-19T00:54:36.969Z,79.1
2017-12-19T00:55:38.621Z,72.2
2017-12-19T00:56:40.271Z,80.3
2017-12-19T00:57:41.925Z,63.1
2017-12-19T00:58:43.572Z,53.1
2017-12-19T00:59:45.216Z,52.5
2017-12-19T01:00:46.860Z,52.1
2017-12-19T01:01:48.509Z,48.2
2017-12-19T01:02:50.161Z,51.4
2017-12-19T01:03:51.809Z,47.6
2017-12-19T01:04:53.453Z,41.3
2017-12-19T01:05:55.097Z,44.1
2017-12-19T01:06:56.744Z,40.5
2017-12-19T01:07:58.391Z,41.8
2017-12-19T01:09:00.048Z,40.6
2017-12-19T01:10:01.713Z,38.9
2017-12-19T01:11:03.357Z,38.2
2017-12-19T01:12:05.004Z,39.2
2017-12-19T01:13:06.658Z,43.7
2017-12-19T01:14:08.308Z,45.0
2017-12-19T01:15:09.955Z,42.7
2017-12-19T01:16:11.616Z,43.4
2017-12-19T01:17:13.249Z,42.4
2017-12-19T01:18:14.905Z,41.7
2017-12-19T01:19:16.547Z,42.8
2017-12-19T01:20:18.184Z,48.8
2017-12-19T01:21:19.831Z,44.7
2017-12-19T01:22:21.506Z,40.9
2017-12-19T01:23:23.159Z,39.6
2017-12-19T01:24:24.805Z,38.9
2017-12-19T01:25:26.444Z,41.0
2017-12-19T01:26:28.092Z,43.2
2017-12-19T01:27:29.742Z,41.1
2017-12-19T01:28:31.412Z,39.3
2017-12-19T01:29:33.047Z,38.1
2017-12-19T01:30:34.696Z,37.2
2017-12-19T01:31:36.355Z,35.4
2017-12-19T01:32:38.004Z,37.1
2017-12-19T01:33:39.651Z,36.5
2017-12-19T01:34:41.297Z,34.8
2017-12-19T01:35:42.952Z,35.9
2017-12-19T01:36:44.595Z,35.1
2017-12-19T01:37:46.232Z,33.8
2017-12-19T01:38:47.886Z,33.9
2017-12-19T01:39:49.542Z,31.7
2017-12-19T01:40:51.196Z,32.5
2017-12-19T01:41:52.848Z,33.1
2017-12-19T01:42:54.490Z,32.0
2017-12-19T01:43:56.149Z,35.1
2017-12-19T01:44:57.792Z,34.3
2017-12-19T01:45:59.443Z,33.7
2017-12-19T01:47:01.102Z,31.6
2017-12-19T01:48:02.751Z,33.2
2017-12-19T01:49:04.399Z,31.9
2017-12-19T01:50:06.043Z,31.8
2017-12-19T01:51:07.695Z,31.7
2017-12-19T01:52:09.347Z,32.4
2017-12-19T01:53:10.996Z,32.5
2017-12-19T01:54:12.640Z,32.0
2017-12-19T01:55:14.294Z,30.7
2017-12-19T01:56:15.953Z,34.3
2017-12-19T01:57:17.596Z,28.6
2017-12-19T01:58:19.241Z,28.8
2017-12-19T01:59:20.883Z,32.8
2017-12-19T02:00:22.558Z,28.1
2017-12-19T02:01:24.202Z,25.9
2017-12-19T02:02:25.847Z,28.2
2017-12-19T02:03:27.494Z,32.7
2017-12-19T02:04:29.144Z,31.9
2017-12-19T02:05:30.785Z,32.6
2017-12-19T02:06:32.438Z,36.5
2017-12-19T02:07:34.085Z,40.8
2017-12-19T02:08:35.741Z,36.1
2017-12-19T02:09:37.378Z,38.3
2017-12-19T02:10:39.022Z,37.3
2017-12-19T02:11:40.670Z,39.1
2017-12-19T02:12:42.310Z,42.6
2017-12-19T02:13:43.966Z,40.0
2017-12-19T02:14:45.674Z,38.5
2017-12-19T02:15:47.325Z,40.6
2017-12-19T02:16:48.968Z,37.0
2017-12-19T02:17:50.623Z,40.2
2017-12-19T02:18:52.266Z,39.3
2017-12-19T02:19:53.919Z,40.0
2017-12-19T02:20:55.570Z,37.0
2017-12-19T02:21:57.216Z,40.9
2017-12-19T02:22:58.861Z,38.3
2017-12-19T02:24:00.510Z,40.2
2017-12-19T02:25:02.162Z,40.0
2017-12-19T02:26:03.809Z,37.8
2017-12-19T02:27:05.467Z,40.4
2017-12-19T02:28:07.106Z,41.6
2017-12-19T02:29:08.754Z,42.0
2017-12-19T02:30:10.403Z,39.8
2017-12-19T02:31:12.055Z,40.7
2017-12-19T02:32:13.700Z,38.9
2017-12-19T02:33:15.352Z,37.4
2017-12-19T02:34:16.996Z,42.1
2017-12-19T02:35:18.648Z,40.3
2017-12-19T02:36:20.296Z,39.9
2017-12-19T02:37:21.944Z,39.7
2017-12-19T02:38:23.586Z,40.0
2017-12-19T02:39:25.235Z,44.0
2017-12-19T02:40:26.882Z,38.1
2017-12-19T02:41:28.523Z,40.7
2017-12-19T02:42:30.173Z,40.1
2017-12-19T02:43:31.817Z,38.5
2017-12-19T02:44:33.473Z,41.1
2017-12-19T02:45:35.123Z,41.1
2017-12-19T02:46:36.763Z,44.4
2017-12-19T02:47:38.426Z,40.2
2017-12-19T02:48:40.076Z,39.0
2017-12-19T02:49:41.719Z,39.3
2017-12-19T02:50:43.372Z,41.7
2017-12-19T02:51:45.040Z,40.3
2017-12-19T02:52:46.690Z,44.2
2017-12-19T02:53:48.336Z,47.0
2017-12-19T02:54:49.981Z,43.5
2017-12-19T03:01:14.011Z,39.3
2017-12-19T03:02:15.657Z,41.5
2017-12-19T03:04:07.819Z,48.6
2017-12-19T03:05:09.469Z,44.9
2017-12-19T03:06:11.121Z,46.3
2017-12-19T03:07:12.775Z,47.3
2017-12-19T03:08:14.422Z,48.5
2017-12-19T03:09:16.076Z,46.1
2017-12-19T03:10:17.721Z,46.5
2017-12-19T03:11:19.364Z,48.9
2017-12-19T03:12:21.013Z,49.3
2017-12-19T03:13:22.656Z,45.0
2017-12-19T03:14:24.301Z,45.9
2017-12-19T03:15:25.952Z,51.6
2017-12-19T03:16:27.595Z,49.9
2017-12-19T03:17:29.248Z,45.8
2017-12-19T03:18:30.889Z,44.2
2017-12-19T03:19:32.541Z,47.8
2017-12-19T03:20:34.182Z,46.4
2017-12-19T03:21:35.830Z,43.5
2017-12-19T03:22:37.476Z,52.9
2017-12-19T03:23:39.130Z,49.6
2017-12-19T03:24:40.782Z,47.1
2017-12-19T03:25:42.432Z,45.2
2017-12-19T03:26:44.075Z,46.0
2017-12-19T03:27:45.728Z,43.4
2017-12-19T03:28:47.384Z,47.7
2017-12-19T03:29:49.044Z,42.2
2017-12-19T03:30:50.714Z,42.6
2017-12-19T03:31:52.363Z,44.0
2017-12-19T03:32:54.010Z,44.7
2017-12-19T03:33:55.651Z,46.2
2017-12-19T03:34:57.312Z,50.2
2017-12-19T03:35:59.042Z,46.1
2017-12-19T03:37:00.700Z,47.5
2017-12-19T03:38:02.339Z,44.9
2017-12-19T03:39:03.981Z,43.0
2017-12-19T03:40:05.637Z,43.9
2017-12-19T03:41:07.285Z,48.4
2017-12-19T03:42:08.933Z,46.9
2017-12-19T03:43:10.583Z,46.7
2017-12-19T03:44:12.224Z,48.0
2017-12-19T03:45:13.874Z,45.9
2017-12-19T03:46:15.526Z,41.3
2017-12-19T03:47:17.175Z,40.7
2017-12-19T03:48:18.824Z,45.5
2017-12-19T03:49:20.463Z,43.3
2017-12-19T03:50:22.142Z,46.6
2017-12-19T03:51:23.785Z,43.3
2017-12-19T03:52:25.441Z,44.1
2017-12-19T03:53:27.085Z,43.3
2017-12-19T03:54:28.744Z,40.6
2017-12-19T03:55:30.384Z,41.6
2017-12-19T03:56:32.029Z,40.8
2017-12-19T03:57:33.677Z,43.2
2017-12-19T03:58:35.316Z,38.2
2017-12-19T03:59:36.966Z,38.3
2017-12-19T04:00:38.619Z,36.4
2017-12-19T04:01:40.275Z,36.2
2017-12-19T04:02:41.959Z,35.0
2017-12-19T04:03:43.611Z,37.8
2017-12-19T04:04:45.250Z,38.4
2017-12-19T04:05:46.941Z,37.8
2017-12-19T04:06:48.592Z,34.3
2017-12-19T04:07:50.243Z,32.9
2017-12-19T04:08:51.900Z,31.3
2017-12-19T04:09:53.552Z,33.5
2017-12-19T04:10:55.205Z,31.4
2017-12-19T04:11:56.850Z,29.7
2017-12-19T04:12:58.500Z,25.7
2017-12-19T04:14:00.145Z,32.2
2017-12-19T04:15:01.789Z,31.2
2017-12-19T04:16:03.451Z,25.2
2017-12-19T04:17:05.096Z,25.8
2017-12-19T04:18:06.747Z,29.6
2017-12-19T04:19:08.397Z,25.0
2017-12-19T04:20:10.043Z,21.9
2017-12-19T04:21:11.699Z,25.4
2017-12-19T04:22:13.344Z,23.8
2017-12-19T04:23:14.996Z,27.6
2017-12-19T04:24:16.649Z,30.1
2017-12-19T04:25:18.288Z,28.3
2017-12-19T04:26:19.937Z,28.3
2017-12-19T04:27:21.589Z,29.3
2017-12-19T04:28:23.228Z,27.6
2017-12-19T04:29:24.880Z,25.8
2017-12-19T04:30:26.531Z,28.8
2017-12-19T04:31:28.178Z,29.5
2017-12-19T04:32:29.839Z,32.5
2017-12-19T04:33:31.479Z,28.3
2017-12-19T04:34:33.140Z,24.7
2017-12-19T04:35:34.784Z,24.1
2017-12-19T04:36:36.430Z,23.5
2017-12-19T04:37:38.078Z,22.4
2017-12-19T04:38:39.724Z,27.5
2017-12-19T04:39:41.366Z,23.5
2017-12-19T04:40:43.014Z,24.6
2017-12-19T04:41:44.662Z,23.6
2017-12-19T04:42:46.310Z,25.5
2017-12-19T04:43:47.962Z,22.1
2017-12-19T04:44:49.613Z,19.8
2017-12-19T04:45:51.259Z,25.0
2017-12-19T04:46:52.913Z,23.7
2017-12-19T04:47:54.555Z,22.3
2017-12-19T04:48:56.207Z,19.5
2017-12-19T04:49:57.866Z,21.0
2017-12-19T04:50:59.512Z,19.4
2017-12-19T04:52:01.172Z,20.3
2017-12-19T04:53:02.819Z,22.9
2017-12-19T04:54:04.487Z,23.0
2017-12-19T04:55:06.134Z,20.7
2017-12-19T04:56:07.784Z,19.0
2017-12-19T04:57:09.434Z,19.1
2017-12-19T04:58:11.089Z,21.2
2017-12-19T04:59:12.757Z,18.3
2017-12-19T05:00:14.421Z,19.6
2017-12-19T05:01:16.064Z,21.4
2017-12-19T05:02:17.722Z,22.1
2017-12-19T05:03:19.379Z,21.5
2017-12-19T05:04:21.033Z,23.7
2017-12-19T05:05:22.707Z,20.3
2017-12-19T05:06:24.363Z,23.3
2017-12-19T05:07:26.070Z,20.4
2017-12-19T05:08:27.721Z,19.8
2017-12-19T05:09:29.378Z,22.4
2017-12-19T05:10:31.025Z,21.6
2017-12-19T05:11:32.663Z,20.4
2017-12-19T05:12:34.317Z,19.7
2017-12-19T05:13:35.971Z,22.4
2017-12-19T05:14:37.614Z,22.1
2017-12-19T05:15:39.259Z,18.5
2017-12-19T05:16:40.912Z,17.9
2017-12-19T05:17:42.566Z,19.7
2017-12-19T05:18:55.080Z,20.7
2017-12-19T05:19:56.744Z,23.5
2017-12-19T05:20:58.401Z,19.4
2017-12-19T05:22:00.047Z,21.3
2017-12-19T05:23:01.696Z,23.4
2017-12-19T05:24:03.339Z,22.3
2017-12-19T05:25:04.998Z,21.7
2017-12-19T05:26:06.651Z,21.4
2017-12-19T05:27:08.297Z,23.9
2017-12-19T05:28:09.942Z,21.4
2017-12-19T05:29:11.591Z,22.2
2017-12-19T05:30:13.236Z,22.5
2017-12-19T05:31:14.895Z,20.6
2017-12-19T05:32:16.553Z,20.3
2017-12-19T05:33:18.207Z,22.7
2017-12-19T05:34:19.851Z,24.4
2017-12-19T05:35:21.507Z,20.5
2017-12-19T05:36:23.165Z,23.0
2017-12-19T05:37:24.805Z,23.0
2017-12-19T05:38:26.454Z,25.3
2017-12-19T05:39:28.103Z,23.0
2017-12-19T05:40:29.750Z,24.2
2017-12-19T05:41:31.396Z,24.4
2017-12-19T05:42:33.051Z,24.3
2017-12-19T05:43:34.716Z,23.6
2017-12-19T05:44:36.368Z,22.1
2017-12-19T05:45:38.019Z,20.4
2017-12-19T05:46:39.657Z,27.4
2017-12-19T05:47:41.308Z,20.8
2017-12-19T05:48:42.968Z,25.2
2017-12-19T05:49:44.619Z,25.8
2017-12-19T05:50:46.274Z,23.3
2017-12-19T05:51:47.940Z,25.1
2017-12-19T05:52:49.594Z,20.9
2017-12-19T05:53:51.241Z,24.6
2017-12-19T05:54:52.892Z,25.1
2017-12-19T05:55:54.546Z,24.1
2017-12-19T05:56:56.201Z,23.9
2017-12-19T05:57:57.844Z,27.1
2017-12-19T05:58:59.505Z,23.6
2017-12-19T06:00:01.160Z,26.0
2017-12-19T06:01:02.813Z,23.6
2017-12-19T06:02:04.463Z,27.3
2017-12-19T06:03:06.117Z,24.3
2017-12-19T06:04:07.771Z,23.4
2017-12-19T06:05:09.425Z,21.3
2017-12-19T06:06:11.074Z,20.9
2017-12-19T06:07:12.735Z,26.6
2017-12-19T06:08:14.439Z,24.7
2017-12-19T06:09:16.122Z,22.4
2017-12-19T06:10:17.781Z,24.9
2017-12-19T06:11:19.431Z,26.0
2017-12-19T06:12:21.064Z,27.4
2017-12-19T06:13:22.725Z,22.6
2017-12-19T06:14:24.378Z,24.0
2017-12-19T06:15:26.021Z,25.1
2017-12-19T06:16:27.675Z,22.7
2017-12-19T06:17:29.327Z,24.3
2017-12-19T06:18:30.975Z,23.3
2017-12-19T06:19:32.627Z,22.1
2017-12-19T06:20:34.268Z,25.4
2017-12-19T06:21:35.970Z,23.8
2017-12-19T06:22:37.613Z,27.7
2017-12-19T06:23:39.270Z,26.8
2017-12-19T06:24:40.926Z,26.4
2017-12-19T06:25:42.589Z,24.8
2017-12-19T06:26:44.227Z,23.0
2017-12-19T06:27:45.872Z,25.8
2017-12-19T06:28:47.520Z,23.7
2017-12-19T06:29:49.165Z,34.3
2017-12-19T06:30:50.817Z,31.7
2017-12-19T06:31:52.476Z,27.1
2017-12-19T06:32:54.129Z,25.1
2017-12-19T06:33:55.786Z,23.8
2017-12-19T06:34:57.431Z,26.0
2017-12-19T06:35:59.097Z,28.4
2017-12-19T06:37:00.755Z,24.1
2017-12-19T06:38:02.395Z,25.0
2017-12-19T06:39:04.062Z,26.8
2017-12-19T06:40:05.709Z,22.2
2017-12-19T06:41:07.358Z,25.7
2017-12-19T06:42:09.045Z,20.8
2017-12-19T06:43:10.689Z,19.7
2017-12-19T06:44:12.331Z,23.6
2017-12-19T06:45:13.980Z,23.5
2017-12-19T06:46:15.635Z,21.7
2017-12-19T06:47:17.280Z,24.6
2017-12-19T06:48:18.936Z,25.2
2017-12-19T06:49:20.584Z,26.7
2017-12-19T06:50:22.244Z,24.4
2017-12-19T06:51:23.890Z,24.6
2017-12-19T06:52:25.539Z,24.2
2017-12-19T06:53:27.186Z,22.5
2017-12-19T06:54:28.845Z,21.0
2017-12-19T06:55:30.489Z,25.0
2017-12-19T07:02:03.976Z,27.9
2017-12-19T07:03:05.628Z,38.6
2017-12-19T07:04:07.440Z,39.3
2017-12-19T07:05:09.091Z,38.8
2017-12-19T07:06:10.737Z,34.4
2017-12-19T07:07:12.384Z,35.3
2017-12-19T07:08:14.027Z,35.7
2017-12-19T07:09:15.682Z,30.7
2017-12-19T07:10:17.335Z,31.4
2017-12-19T07:11:18.985Z,31.0
2017-12-19T07:12:20.633Z,31.1
2017-12-19T07:13:22.279Z,26.8
2017-12-19T07:14:23.940Z,34.1
2017-12-19T07:15:25.585Z,36.5
2017-12-19T07:16:27.235Z,36.9
2017-12-19T07:17:28.906Z,34.8
2017-12-19T07:18:30.527Z,34.5
2017-12-19T07:19:32.174Z,33.8
2017-12-19T07:20:33.828Z,28.4
2017-12-19T07:21:35.491Z,33.9
2017-12-19T07:22:37.133Z,30.9
2017-12-19T07:23:38.789Z,29.0
2017-12-19T07:24:40.448Z,27.9
2017-12-19T07:25:42.088Z,29.0
2017-12-19T07:26:43.748Z,28.5
2017-12-19T07:27:45.395Z,24.1
2017-12-19T07:28:47.056Z,28.5
2017-12-19T07:29:48.710Z,30.3
2017-12-19T07:30:50.371Z,31.7
2017-12-19T07:31:52.032Z,30.4
2017-12-19T07:32:53.706Z,31.9
2017-12-19T07:33:55.340Z,36.2
2017-12-19T07:34:57.016Z,34.4
2017-12-19T07:35:58.714Z,35.4
2017-12-19T07:37:00.382Z,36.2
2017-12-19T07:38:02.031Z,32.9
2017-12-19T07:39:03.680Z,31.5
2017-12-19T07:40:05.334Z,35.2
2017-12-19T07:41:07.000Z,30.5
2017-12-19T07:42:08.644Z,29.2
2017-12-19T07:43:10.293Z,29.5
2017-12-19T07:44:11.955Z,28.2
2017-12-19T07:45:13.616Z,34.0
2017-12-19T07:46:15.268Z,35.4
2017-12-19T07:47:16.923Z,31.1
2017-12-19T07:48:18.567Z,32.4
2017-12-19T07:49:20.227Z,32.1
2017-12-19T07:50:21.882Z,32.1
2017-12-19T07:51:23.540Z,32.3
2017-12-19T07:52:25.192Z,33.5
2017-12-19T07:53:26.847Z,35.3
2017-12-19T07:54:28.500Z,34.5
2017-12-19T07:55:30.155Z,40.1
2017-12-19T07:56:31.806Z,34.8
2017-12-19T07:57:33.460Z,37.4
2017-12-19T07:58:35.116Z,38.3
2017-12-19T07:59:36.769Z,34.9
2017-12-19T08:00:38.436Z,34.0
2017-12-19T08:01:40.080Z,33.6
2017-12-19T08:02:41.744Z,34.6
2017-12-19T08:03:43.394Z,35.7
2017-12-19T08:04:45.073Z,36.0
2017-12-19T08:05:46.721Z,36.2
2017-12-19T08:06:48.391Z,36.8
2017-12-19T08:07:50.051Z,34.6
2017-12-19T08:08:51.712Z,34.6
2017-12-19T08:09:53.351Z,35.5
2017-12-19T08:10:54.998Z,35.9
2017-12-19T08:11:56.670Z,40.0
2017-12-19T08:12:58.373Z,35.8
2017-12-19T08:14:00.027Z,32.5
2017-12-19T08:15:01.687Z,33.2
2017-12-19T08:16:03.341Z,32.8
2017-12-19T08:17:04.993Z,31.9
2017-12-19T08:18:06.656Z,33.6
2017-12-19T08:19:08.309Z,31.0
2017-12-19T08:20:09.968Z,39.2
2017-12-19T08:21:11.674Z,34.0
2017-12-19T08:22:13.278Z,36.5
2017-12-19T08:23:14.940Z,37.1
2017-12-19T08:24:16.598Z,36.1
2017-12-19T08:25:18.251Z,35.2
2017-12-19T08:26:19.919Z,31.4
2017-12-19T08:27:21.571Z,32.9
2017-12-19T08:28:23.240Z,33.6
2017-12-19T08:29:24.887Z,29.5
2017-12-19T08:30:26.541Z,29.1
2017-12-19T08:31:28.193Z,25.2
2017-12-19T08:32:29.883Z,25.1
2017-12-19T08:33:31.526Z,29.2
2017-12-19T08:34:33.188Z,23.9
2017-12-19T08:35:34.839Z,28.2
2017-12-19T08:36:36.493Z,25.4
2017-12-19T08:37:38.163Z,26.4
2017-12-19T08:38:39.812Z,27.2
2017-12-19T08:39:41.466Z,25.2
2017-12-19T08:40:43.116Z,26.8
2017-12-19T08:41:44.777Z,22.8
2017-12-19T08:42:46.444Z,27.9
2017-12-19T08:43:48.100Z,27.8
2017-12-19T08:44:50.069Z,29.0
2017-12-19T08:45:51.746Z,32.4
2017-12-19T08:46:53.406Z,27.9
2017-12-19T08:47:55.067Z,25.0
2017-12-19T08:48:56.722Z,24.6
2017-12-19T08:49:58.392Z,26.6
2017-12-19T08:51:00.045Z,24.8
2017-12-19T08:52:01.702Z,25.8
2017-12-19T08:53:03.368Z,23.5
2017-12-19T08:54:05.042Z,28.9
2017-12-19T08:55:06.698Z,25.2
2017-12-19T08:56:08.407Z,24.8
2017-12-19T08:57:10.066Z,28.4
2017-12-19T08:58:11.716Z,30.8
2017-12-19T08:59:13.376Z,27.6
2017-12-19T09:00:15.032Z,25.1
2017-12-19T09:01:16.693Z,25.6
2017-12-19T09:02:18.369Z,25.0
2017-12-19T09:03:20.008Z,29.0
2017-12-19T09:04:21.667Z,26.1
2017-12-19T09:05:23.329Z,27.0
2017-12-19T09:06:24.985Z,28.4
2017-12-19T09:07:26.637Z,28.0
2017-12-19T09:08:28.300Z,30.4
2017-12-19T09:09:29.958Z,30.2
2017-12-19T09:10:31.613Z,31.0
2017-12-19T09:11:33.277Z,31.4
2017-12-19T09:12:34.943Z,26.2
2017-12-19T09:13:36.598Z,28.7
2017-12-19T09:14:38.246Z,30.7
2017-12-19T09:15:39.913Z,27.9
2017-12-19T09:16:41.570Z,32.5
2017-12-19T09:17:43.242Z,30.4
2017-12-19T09:18:44.909Z,31.4
2017-12-19T09:19:46.575Z,30.9
2017-12-19T09:20:48.240Z,34.2
2017-12-19T09:21:49.888Z,35.3
2017-12-19T09:22:51.544Z,37.2
2017-12-19T09:23:53.196Z,30.3
2017-12-19T09:24:54.859Z,31.3
2017-12-19T09:25:56.515Z,35.0
2017-12-19T09:26:58.155Z,33.1
2017-12-19T09:27:59.804Z,33.3
2017-12-19T09:29:01.487Z,34.8
2017-12-19T09:30:03.130Z,33.0
2017-12-19T09:31:04.799Z,32.1
2017-12-19T09:32:06.463Z,37.4
2017-12-19T09:33:08.120Z,32.7
2017-12-19T09:34:09.778Z,35.4
2017-12-19T09:35:11.432Z,34.9
2017-12-19T09:36:13.596Z,42.2
2017-12-19T09:37:15.256Z,53.1
2017-12-19T09:38:16.909Z,46.7
2017-12-19T09:39:18.580Z,38.7
2017-12-19T09:40:20.232Z,42.6
2017-12-19T09:41:21.880Z,40.5
2017-12-19T09:42:23.540Z,36.0
2017-12-19T09:43:25.189Z,37.5
2017-12-19T09:44:26.850Z,38.3
2017-12-19T09:45:28.518Z,31.7
2017-12-19T09:46:30.174Z,31.7
2017-12-19T09:47:31.829Z,34.6
2017-12-19T09:48:33.489Z,32.0
2017-12-19T09:49:35.138Z,31.6
2017-12-19T09:50:36.787Z,36.9
2017-12-19T09:51:38.445Z,31.0
2017-12-19T09:52:40.111Z,30.4
2017-12-19T09:53:41.757Z,33.8
2017-12-19T09:54:43.415Z,32.7
2017-12-19T09:55:45.078Z,28.8
2017-12-19T09:56:46.728Z,33.4
2017-12-19T09:57:48.385Z,32.4
2017-12-19T09:58:50.045Z,34.1
2017-12-19T09:59:51.697Z,39.3
2017-12-19T10:00:53.356Z,33.0
2017-12-19T10:01:55.015Z,34.8
2017-12-19T10:02:56.684Z,31.2
2017-12-19T10:03:58.358Z,31.1
2017-12-19T10:05:00.010Z,37.8
2017-12-19T10:06:01.670Z,37.8
2017-12-19T10:07:03.350Z,41.3
2017-12-19T10:08:05.013Z,42.0
2017-12-19T10:09:06.686Z,38.4
2017-12-19T10:10:08.344Z,36.2
2017-12-19T10:11:09.999Z,37.3
2017-12-19T10:12:11.660Z,37.1
2017-12-19T10:13:13.321Z,31.5
2017-12-19T10:14:14.995Z,33.6
2017-12-19T10:15:16.658Z,35.1
2017-12-19T10:16:18.501Z,35.0
2017-12-19T10:17:20.155Z,32.3
2017-12-19T10:18:21.821Z,31.2
2017-12-19T10:19:23.487Z,31.5
2017-12-19T10:20:25.152Z,37.2
2017-12-19T10:21:26.809Z,29.6
2017-12-19T10:22:28.471Z,30.3
2017-12-19T10:23:30.125Z,29.6
2017-12-19T10:24:31.777Z,32.1
2017-12-19T10:25:33.436Z,32.5
2017-12-19T10:26:35.097Z,27.5
2017-12-19T10:27:36.761Z,28.9
2017-12-19T10:28:38.418Z,28.5
2017-12-19T10:29:40.073Z,27.2
2017-12-19T10:30:41.740Z,27.0
2017-12-19T10:31:43.398Z,31.1
2017-12-19T10:32:45.053Z,25.7
2017-12-19T10:33:46.719Z,28.3
2017-12-19T10:34:48.381Z,30.1
2017-12-19T10:35:50.053Z,34.3
2017-12-19T10:36:51.715Z,29.1
2017-12-19T10:37:53.367Z,37.3
2017-12-19T10:38:55.022Z,36.0
2017-12-19T10:39:56.693Z,39.2
2017-12-19T10:40:58.356Z,35.6
2017-12-19T10:42:00.034Z,35.1
2017-12-19T10:43:01.690Z,31.0
2017-12-19T10:44:03.353Z,25.1
2017-12-19T10:45:05.007Z,26.6
2017-12-19T10:46:06.655Z,29.7
2017-12-19T10:47:09.060Z,28.4
2017-12-19T10:48:10.671Z,36.9
2017-12-19T10:49:12.325Z,35.1
2017-12-19T10:50:13.989Z,39.7
2017-12-19T10:51:15.661Z,52.4
2017-12-19T10:52:17.316Z,71.8
2017-12-19T10:53:18.974Z,58.5
2017-12-19T10:54:20.647Z,59.6
2017-12-19T10:55:22.279Z,61.4
2017-12-19T11:01:20.585Z,43.0
2017-12-19T11:02:22.246Z,40.7
2017-12-19T11:03:23.907Z,38.8
2017-12-19T11:04:25.575Z,42.9
2017-12-19T11:05:27.238Z,33.0
2017-12-19T11:06:28.886Z,24.6
2017-12-19T11:07:30.541Z,17.2
2017-12-19T11:08:32.205Z,18.7
2017-12-19T11:09:33.854Z,15.6
2017-12-19T11:10:35.520Z,21.2
2017-12-19T11:11:37.171Z,24.7
2017-12-19T11:12:38.852Z,21.8
2017-12-19T11:13:40.503Z,27.0
2017-12-19T11:14:42.168Z,34.1
2017-12-19T11:15:43.827Z,29.1
2017-12-19T11:16:45.487Z,28.7
2017-12-19T11:17:47.152Z,28.7
2017-12-19T11:18:48.806Z,23.0
2017-12-19T11:19:50.465Z,19.9
2017-12-19T11:20:52.119Z,27.9
2017-12-19T11:21:53.789Z,27.5
2017-12-19T11:22:55.447Z,25.3
2017-12-19T11:23:57.092Z,15.0
2017-12-19T11:24:58.768Z,16.1
2017-12-19T11:26:00.414Z,17.0
2017-12-19T11:27:02.076Z,12.1
2017-12-19T11:28:03.724Z,11.1
2017-12-19T11:29:05.396Z,8.5
2017-12-19T11:30:07.103Z,8.7
2017-12-19T11:31:08.762Z,17.3
2017-12-19T11:32:10.424Z,17.4
2017-12-19T11:33:12.084Z,12.3
2017-12-19T11:34:13.747Z,10.8
2017-12-19T11:35:15.408Z,8.4
2017-12-19T11:36:17.065Z,11.7
2017-12-19T11:37:18.724Z,9.5
2017-12-19T11:38:20.386Z,15.7
2017-12-19T11:39:22.047Z,13.6
2017-12-19T11:40:23.709Z,15.4
2017-12-19T11:41:25.362Z,13.2
2017-12-19T11:42:27.034Z,13.8
2017-12-19T11:43:28.689Z,12.0
2017-12-19T11:44:30.356Z,12.6
2017-12-19T11:45:32.017Z,16.8
2017-12-19T11:46:33.666Z,13.5
2017-12-19T11:47:35.316Z,13.5
2017-12-19T11:48:36.980Z,13.6
2017-12-19T11:49:38.644Z,12.3
2017-12-19T11:50:40.304Z,12.7
2017-12-19T11:51:41.959Z,12.7
2017-12-19T11:52:43.610Z,15.5
2017-12-19T11:53:45.273Z,10.9
2017-12-19T11:54:46.926Z,12.1
2017-12-19T11:55:48.626Z,18.4
2017-12-19T11:56:50.281Z,14.5
2017-12-19T11:57:51.935Z,12.5
2017-12-19T11:58:53.602Z,10.7
2017-12-19T11:59:55.255Z,11.1
2017-12-19T12:00:56.917Z,13.8
2017-12-19T12:01:58.614Z,16.7
2017-12-19T12:03:00.244Z,18.8
2017-12-19T12:04:01.914Z,14.6
2017-12-19T12:05:03.573Z,13.0
2017-12-19T12:06:05.247Z,10.7
2017-12-19T12:07:06.906Z,12.5
2017-12-19T12:08:08.568Z,13.0
2017-12-19T12:09:10.246Z,17.0
2017-12-19T12:10:11.913Z,15.5
2017-12-19T12:11:13.579Z,16.6
2017-12-19T12:12:15.231Z,18.8
2017-12-19T12:13:16.890Z,19.7
2017-12-19T12:14:18.542Z,14.5
2017-12-19T12:15:20.197Z,15.7
2017-12-19T12:16:21.860Z,15.8
2017-12-19T12:17:23.506Z,14.9
2017-12-19T12:18:25.172Z,14.8
2017-12-19T12:19:26.846Z,15.1
2017-12-19T12:20:28.520Z,13.0
2017-12-19T12:21:30.190Z,16.7
2017-12-19T12:22:31.845Z,17.2
2017-12-19T12:23:33.500Z,14.5
2017-12-19T12:24:35.204Z,15.9
2017-12-19T12:25:36.866Z,12.7
2017-12-19T12:26:38.536Z,12.0
2017-12-19T12:27:40.189Z,13.9
2017-12-19T12:28:41.844Z,15.9
2017-12-19T12:29:43.499Z,16.2
2017-12-19T12:30:45.175Z,14.2
2017-12-19T12:31:46.824Z,14.9
2017-12-19T12:32:48.483Z,14.2
2017-12-19T12:33:50.151Z,13.3
2017-12-19T12:34:51.809Z,14.0
2017-12-19T12:35:53.464Z,10.8
2017-12-19T12:36:55.118Z,11.3
2017-12-19T12:37:56.781Z,11.3
2017-12-19T12:38:58.446Z,15.1
2017-12-19T12:40:00.114Z,13.4
2017-12-19T12:41:01.772Z,15.4
2017-12-19T12:42:03.447Z,13.8
2017-12-19T12:43:05.150Z,15.4
2017-12-19T12:44:06.915Z,12.9
2017-12-19T12:45:08.567Z,13.1
2017-12-19T12:46:10.240Z,11.7
2017-12-19T12:47:11.894Z,12.3
2017-12-19T12:48:13.555Z,14.6
2017-12-19T12:49:15.220Z,16.5
2017-12-19T12:50:16.874Z,13.1
2017-12-19T12:51:18.885Z,17.6
2017-12-19T12:52:20.886Z,18.7
2017-12-19T12:53:22.565Z,14.9
2017-12-19T12:54:24.215Z,9.7
2017-12-19T12:55:25.882Z,11.6
2017-12-19T12:56:28.044Z,11.5
2017-12-19T12:57:29.421Z,10.4
2017-12-19T12:58:31.079Z,9.5
2017-12-19T12:59:32.748Z,13.7
2017-12-19T13:00:34.421Z,11.4
2017-12-19T13:01:36.096Z,12.3
2017-12-19T13:02:37.847Z,11.5
2017-12-19T13:03:39.381Z,12.5
2017-12-19T13:04:41.050Z,13.6
2017-12-19T13:05:42.878Z,11.6
2017-12-19T13:06:44.563Z,17.1
2017-12-19T13:07:46.216Z,11.7
2017-12-19T13:08:47.883Z,11.3
2017-12-19T13:09:49.545Z,13.2
2017-12-19T13:10:51.731Z,12.1
2017-12-19T13:11:52.830Z,17.3
2017-12-19T13:12:54.589Z,14.1
2017-12-19T13:13:56.249Z,11.5
2017-12-19T13:14:57.911Z,11.4
2017-12-19T13:15:59.573Z,11.4
2017-12-19T13:17:01.276Z,11.1
2017-12-19T13:18:03.008Z,11.5
2017-12-19T13:19:04.701Z,12.2
2017-12-19T13:20:06.444Z,10.5
2017-12-19T13:21:08.224Z,12.0
2017-12-19T13:22:09.887Z,11.7
2017-12-19T13:23:11.544Z,13.9
2017-12-19T13:24:13.210Z,12.0
2017-12-19T13:25:14.878Z,8.7
2017-12-19T13:26:16.542Z,14.9
2017-12-19T13:27:18.225Z,6.9
2017-12-19T13:28:19.883Z,7.1
2017-12-19T13:29:21.537Z,8.8
2017-12-19T13:30:23.198Z,7.9
2017-12-19T13:31:24.854Z,7.5
2017-12-19T13:32:26.505Z,9.0
2017-12-19T13:33:28.161Z,7.2
2017-12-19T13:34:29.840Z,7.0
2017-12-19T13:35:31.520Z,7.8
2017-12-19T13:36:33.193Z,7.2
2017-12-19T13:37:34.859Z,7.6
2017-12-19T13:38:36.531Z,8.7
2017-12-19T13:39:38.244Z,10.0
2017-12-19T13:40:39.912Z,11.3
2017-12-19T13:41:41.569Z,9.2
2017-12-19T13:42:43.216Z,9.1
2017-12-19T13:43:44.883Z,10.5
2017-12-19T13:44:46.534Z,8.1
2017-12-19T13:45:48.231Z,8.4
2017-12-19T13:46:49.897Z,9.5
2017-12-19T13:47:51.546Z,12.9
2017-12-19T13:48:53.211Z,11.3
2017-12-19T13:49:54.877Z,7.8
2017-12-19T13:50:56.585Z,9.3
2017-12-19T13:51:58.184Z,10.5
2017-12-19T13:52:59.846Z,11.5
2017-12-19T13:54:01.526Z,14.6
2017-12-19T13:55:03.184Z,13.3
2017-12-19T13:56:04.837Z,11.1
2017-12-19T13:57:06.505Z,9.9
2017-12-19T13:58:08.162Z,16.4